Terminal Aerodrome Forecast
Issued by NWS Cleveland, OH

Home | Current Version | Previous Version | Text Only | Print | Product List | Glossary Off
Versions: 1 2 3 4 5 6 7 8 9 10 11 12 13 14 15 16 17 18 19 20 21 22 23 24 25 26 27

000
FTUS41 KCLE 040702 AAA
TAFCLE
TAF AMD
KCLE 040702Z 0407/0512 21004KT P6SM OVC035
     FM040800 VRB03KT P6SM SCT025 OVC150
     FM041600 16004KT P6SM OVC100
     FM041900 12005KT 6SM -RASN BR OVC040
     FM050200 13004KT 2SM -SN OVC020=

USA.gov is the U.S. government's official web portal to all federal, state and local government web resources and services.